Acme, North Carolina
Current Conditions -  °F | °C
As of 12:53 PM on Thursday 29 Jan 2015 (Local Time) from KILM Reporting Station
Clear Clear  
Wind Chill: 47°   Ceiling: Unl
Heat Index: 49°   Visibility: 10mi
Dew Point: 18°   Wind: 5mph
Humidity: 29%   Direction: 120°ESE
Pressure: 30.3"   Gusts: NA
Location:  34.3494°N, 78.2681°W
Report Text: KILM 291753Z AUTO 12004KT 10SM CLR 09/M08 A3030 RMK AO2 SLP260 T00941078 10100 21044 58030
Loading
Personal Weather Stations






























Interactive Weather Map New forecast layout! Learn more

10-Day Weather Forecast

Advertisements
Track Severe Weather on mobile